| time (UTC) | temp F | wind direction | speed MPH | gust MPH | rain 1hr in | rain 24hr in | rain mn in | humidity % | barometer mb |
| 20260906073600 | 48 | 65 | 5.0 | 7.0 | 0.00 | 0.00 | 0.00 | 57 | 1021.9 |
| 20260906073105 | 45 | 0 | 0.0 | 1.0 | 0.00 | 0.00 | 0.00 | 58 | 1021.9 |
| 20260906072558 | 46 | 0 | 0.0 | 1.0 | 0.00 | 0.00 | 0.00 | 58 | 1022.0 |
| 20260906072058 | 46 | 0 | 0.0 | 1.0 | 0.00 | 0.00 | 0.00 | 58 | 1022.0 |
| 20260906071605 | 45 | 30 | 0.0 | 1.0 | 0.00 | 0.00 | 0.00 | 61 | 1021.9 |
| 20260906071057 | 45 | 0 | 0.0 | 1.0 | 0.00 | 0.00 | 0.00 | 60 | 1022.0 |
| 20260906070558 | 45 | 0 | 0.0 | 1.0 | 0.00 | 0.00 | 0.00 | 61 | 1021.9 |
| 20260906070111 | 46 | 0 | 0.0 | 1.0 | 0.00 | 0.00 | 0.00 | 60 | 1021.9 |
| 20260906065558 | 47 | 0 | 0.0 | 1.0 | 0.00 | 0.00 | 0.00 | 60 | 1021.8 |
| 20260906065058 | 47 | 17 | 0.0 | 2.0 | 0.00 | 0.00 | 0.00 | 59 | 1022.0 |
| 20260906064606 | 47 | 0 | 0.0 | 2.0 | 0.00 | 0.00 | 0.00 | 59 | 1021.8 |
| 20260906064058 | 48 | 354 | 0.0 | 2.0 | 0.00 | 0.00 | 0.00 | 58 | 1021.7 |
| 20260906063556 | 48 | 200 | 0.0 | 1.0 | 0.00 | 0.00 | 0.00 | 58 | 1021.9 |
| 20260906063106 | 48 | 0 | 0.0 | 1.0 | 0.00 | 0.00 | 0.00 | 58 | 1021.8 |
| 20260906062555 | 49 | 0 | 0.0 | 2.0 | 0.00 | 0.00 | 0.00 | 58 | 1021.9 |
| 20260906062055 | 49 | 0 | 0.0 | 2.0 | 0.00 | 0.00 | 0.00 | 57 | 1022.0 |
| 20260906061607 | 50 | 0 | 0.0 | 4.0 | 0.00 | 0.00 | 0.00 | 57 | 1022.1 |
| 20260906061057 | 50 | 0 | 1.0 | 5.0 | 0.00 | 0.00 | 0.00 | 57 | 1022.0 |
| 20260906060555 | 49 | 59 | 2.0 | 5.0 | 0.00 | 0.00 | 0.00 | 58 | 1021.9 |
| 20260906060105 | 49 | 158 | 2.0 | 4.0 | 0.00 | 0.00 | 0.00 | 59 | 1022.0 |
| 20260906055559 | 49 | 0 | 1.0 | 3.0 | 0.00 | 0.00 | 0.00 | 61 | 1022.0 |
| 20260906055057 | 49 | 136 | 0.0 | 3.0 | 0.00 | 0.00 | 0.00 | 61 | 1022.2 |
| 20260906054608 | 49 | 154 | 0.0 | 4.0 | 0.00 | 0.00 | 0.00 | 60 | 1022.2 |
| 20260906054056 | 49 | 0 | 1.0 | 5.0 | 0.00 | 0.00 | 0.00 | 60 | 1022.1 |
| 20260906053556 | 49 | 79 | 3.0 | 5.0 | 0.00 | 0.00 | 0.00 | 62 | 1022.1 |
| 20260906053110 | 48 | 101 | 2.0 | 4.0 | 0.00 | 0.00 | 0.00 | 62 | 1022.1 |
| 20260906052555 | 49 | 0 | 1.0 | 5.0 | 0.00 | 0.00 | 0.00 | 61 | 1022.2 |
| 20260906052059 | 48 | 105 | 0.0 | 5.0 | 0.00 | 0.00 | 0.00 | 61 | 1022.1 |
| 20260906051605 | 49 | 205 | 0.0 | 3.0 | 0.00 | 0.00 | 0.00 | 61 | 1022.4 |
| 20260906051058 | 49 | 0 | 0.0 | 3.0 | 0.00 | 0.00 | 0.00 | 60 | 1022.1 |
| 20260906050600 | 49 | 0 | 0.0 | 1.0 | 0.00 | 0.00 | 0.00 | 61 | 1022.2 |
| 20260906050108 | 49 | 0 | 0.0 | 2.0 | 0.00 | 0.00 | 0.00 | 61 | 1022.2 |
| 20260906045557 | 49 | 128 | 0.0 | 2.0 | 0.00 | 0.00 | 0.00 | 59 | 1022.2 |
| 20260906045103 | 50 | 0 | 0.0 | 1.0 | 0.00 | 0.00 | 0.00 | 59 | 1022.3 |
| 20260906044607 | 51 | 0 | 0.0 | 1.0 | 0.00 | 0.00 | 0.00 | 58 | 1022.4 |
| 20260906044054 | 51 | 0 | 0.0 | 1.0 | 0.00 | 0.00 | 0.00 | 58 | 1022.2 |
| 20260906043556 | 51 | 226 | 0.0 | 0.0 | 0.00 | 0.00 | 0.00 | 57 | 1022.1 |
| 20260906043107 | 52 | 0 | 0.0 | 0.0 | 0.00 | 0.00 | 0.00 | 57 | 1022.2 |
| 20260906042555 | 52 | 0 | 0.0 | 0.0 | 0.00 | 0.00 | 0.00 | 57 | 1022.1 |
| 20260906042055 | 52 | 166 | 0.0 | 2.0 | 0.00 | 0.00 | 0.00 | 57 | 1022.0 |
| 20260906041606 | 53 | 195 | 0.0 | 2.0 | 0.00 | 0.00 | 0.00 | 54 | 1022.1 |
| 20260906041057 | 54 | 0 | 0.0 | 1.0 | 0.00 | 0.00 | 0.00 | 55 | 1022.0 |
| 20260906040600 | 54 | 0 | 0.0 | 1.0 | 0.00 | 0.00 | 0.00 | 55 | 1022.0 |
| 20260906040112 | 55 | 172 | 0.0 | 1.0 | 0.00 | 0.00 | 0.00 | 54 | 1021.9 |
| 20260906035557 | 55 | 0 | 0.0 | 3.0 | 0.00 | 0.00 | 0.00 | 53 | 1021.8 |
| 20260906035101 | 56 | 0 | 1.0 | 3.0 | 0.00 | 0.00 | 0.00 | 52 | 1021.7 |
| 20260906034608 | 56 | 0 | 0.0 | 1.0 | 0.00 | 0.00 | 0.00 | 50 | 1021.6 |
| 20260906034057 | 57 | 0 | 0.0 | 5.0 | 0.00 | 0.00 | 0.00 | 48 | 1021.7 |
| 20260906033557 | 58 | 0 | 0.0 | 5.0 | 0.00 | 0.00 | 0.00 | 47 | 1021.6 |
| 20260906033116 | 58 | 0 | 1.0 | 5.0 | 0.00 | 0.00 | 0.00 | 46 | 1021.5 |
| 20260906032558 | 59 | 347 | 2.0 | 7.0 | 0.00 | 0.00 | 0.00 | 45 | 1021.5 |
| 20260906032057 | 60 | 32 | 2.0 | 7.0 | 0.00 | 0.00 | 0.00 | 43 | 1021.5 |
| 20260906031607 | 63 | 22 | 0.0 | 15.0 | 0.00 | 0.00 | 0.00 | 37 | 1021.2 |
| 20260906031100 | 65 | 340 | 4.0 | 15.0 | 0.00 | 0.00 | 0.00 | 20 | 1021.0 |
| 20260906030558 | 65 | 119 | 9.0 | 16.0 | 0.00 | 0.00 | 0.00 | 18 | 1021.0 |
| 20260906030109 | 65 | 141 | 6.0 | 19.0 | 0.00 | 0.00 | 0.00 | 19 | 1020.9 |
| 20260906025558 | 65 | 86 | 11.0 | 20.0 | 0.00 | 0.00 | 0.00 | 20 | 1021.1 |
| 20260906025058 | 65 | 133 | 11.0 | 20.0 | 0.00 | 0.00 | 0.00 | 21 | 1020.8 |
| 20260906024608 | 65 | 160 | 11.0 | 20.0 | 0.00 | 0.00 | 0.00 | 22 | 1021.1 |
| 20260906024100 | 65 | 155 | 9.0 | 15.0 | 0.00 | 0.00 | 0.00 | 22 | 1021.0 |
| 20260906023558 | 65 | 117 | 9.0 | 16.0 | 0.00 | 0.00 | 0.00 | 22 | 1021.0 |
| 20260906023104 | 65 | 149 | 8.0 | 18.0 | 0.00 | 0.00 | 0.00 | 23 | 1020.8 |
| 20260906022559 | 65 | 145 | 9.0 | 21.0 | 0.00 | 0.00 | 0.00 | 23 | 1020.9 |
| 20260906022102 | 65 | 111 | 10.0 | 21.0 | 0.00 | 0.00 | 0.00 | 22 | 1020.9 |
| 20260906021606 | 65 | 117 | 7.0 | 15.0 | 0.00 | 0.00 | 0.00 | 23 | 1020.9 |
| 20260906021057 | 65 | 180 | 8.0 | 15.0 | 0.00 | 0.00 | 0.00 | 24 | 1021.0 |
| 20260906020557 | 65 | 158 | 7.0 | 12.0 | 0.00 | 0.00 | 0.00 | 24 | 1021.0 |
| 20260906020113 | 65 | 139 | 4.0 | 13.0 | 0.00 | 0.00 | 0.00 | 23 | 1020.9 |
| 20260906015557 | 65 | 148 | 4.0 | 15.0 | 0.00 | 0.00 | 0.00 | 25 | 1020.9 |
| 20260906015058 | 66 | 102 | 7.0 | 15.0 | 0.00 | 0.00 | 0.00 | 23 | 1020.9 |
| 20260906014606 | 66 | 157 | 4.0 | 13.0 | 0.00 | 0.00 | 0.00 | 23 | 1020.9 |
| 20260906014057 | 66 | 141 | 6.0 | 13.0 | 0.00 | 0.00 | 0.00 | 23 | 1020.6 |
| 20260906013601 | 67 | 212 | 6.0 | 10.0 | 0.00 | 0.00 | 0.00 | 23 | 1020.6 |
| 20260906013111 | 67 | 128 | 5.0 | 10.0 | 0.00 | 0.00 | 0.00 | 23 | 1020.5 |
| 20260906012559 | 68 | 153 | 3.0 | 8.0 | 0.00 | 0.00 | 0.00 | 22 | 1020.5 |
| 20260906012057 | 68 | 0 | 2.0 | 8.0 | 0.00 | 0.00 | 0.00 | 22 | 1020.4 |
| 20260906011610 | 68 | 0 | 0.0 | 8.0 | 0.00 | 0.00 | 0.00 | 22 | 1020.6 |
| 20260906011058 | 69 | 94 | 2.0 | 13.0 | 0.00 | 0.00 | 0.00 | 22 | 1020.5 |
| 20260906010555 | 69 | 0 | 3.0 | 13.0 | 0.00 | 0.00 | 0.00 | 21 | 1020.6 |
| 20260906010107 | 70 | 104 | 7.0 | 11.0 | 0.00 | 0.00 | 0.00 | 20 | 1020.6 |
| 20260906005555 | 70 | 75 | 0.0 | 7.0 | 0.00 | 0.00 | 0.00 | 21 | 1020.5 |
| 20260906005057 | 70 | 255 | 1.0 | 7.0 | 0.00 | 0.00 | 0.00 | 21 | 1020.6 |
| 20260906004610 | 70 | 242 | 3.0 | 15.0 | 0.00 | 0.00 | 0.00 | 22 | 1020.6 |
| 20260906004058 | 70 | 222 | 2.0 | 16.0 | 0.00 | 0.00 | 0.00 | 22 | 1020.5 |
| 20260906003558 | 70 | 116 | 9.0 | 16.0 | 0.00 | 0.00 | 0.00 | 20 | 1020.5 |
| 20260906003106 | 70 | 47 | 9.0 | 16.0 | 0.00 | 0.00 | 0.00 | 21 | 1020.4 |
| 20260906002557 | 71 | 105 | 6.0 | 13.0 | 0.00 | 0.00 | 0.00 | 22 | 1020.4 |
| 20260906002055 | 71 | 127 | 3.0 | 13.0 | 0.00 | 0.00 | 0.00 | 21 | 1020.4 |
| 20260906001609 | 71 | 123 | 7.0 | 13.0 | 0.00 | 0.00 | 0.00 | 19 | 1020.3 |
| 20260906001057 | 71 | 106 | 2.0 | 10.0 | 0.00 | 0.00 | 0.00 | 20 | 1020.3 |
| 20260906000557 | 71 | 4 | 5.0 | 21.0 | 0.00 | 0.00 | 0.00 | 19 | 1020.2 |
| 20260906000107 | 71 | 183 | 9.0 | 21.0 | 0.00 | 0.00 | 0.00 | 22 | 1020.4 |
| 20260905235557 | 71 | 132 | 8.0 | 16.0 | 0.00 | 0.00 | 0.00 | 19 | 1020.1 |
| 20260905235057 | 71 | 162 | 0.0 | 15.0 | 0.00 | 0.00 | 0.00 | 22 | 1020.3 |
| 20260905234604 | 71 | 333 | 6.0 | 21.0 | 0.00 | 0.00 | 0.00 | 20 | 1020.2 |
| 20260905234056 | 71 | 169 | 4.0 | 21.0 | 0.00 | 0.00 | 0.00 | 21 | 1020.1 |
| 20260905233556 | 72 | 131 | 13.0 | 21.0 | 0.00 | 0.00 | 0.00 | 20 | 1020.0 |
| 20260905233104 | 73 | 147 | 5.0 | 14.0 | 0.00 | 0.00 | 0.00 | 20 | 1019.9 |
| 20260905232555 | 72 | 110 | 4.0 | 11.0 | 0.00 | 0.00 | 0.00 | 20 | 1019.9 |
| 20260905232056 | 73 | 155 | 1.0 | 10.0 | 0.00 | 0.00 | 0.00 | 23 | 1019.9 |
| 20260905231609 | 72 | 77 | 4.0 | 10.0 | 0.00 | 0.00 | 0.00 | 21 | 1019.9 |
| 20260905231057 | 72 | 49 | 2.0 | 7.0 | 0.00 | 0.00 | 0.00 | 21 | 1019.9 |
| 20260905230557 | 73 | 0 | 3.0 | 5.0 | 0.00 | 0.00 | 0.00 | 20 | 1020.0 |
| 20260905230108 | 73 | 258 | 1.0 | 13.0 | 0.00 | 0.00 | 0.00 | 22 | 1020.0 |
| 20260905225556 | 72 | 0 | 2.0 | 13.0 | 0.00 | 0.00 | 0.00 | 23 | 1019.9 |
| 20260905225057 | 72 | 146 | 5.0 | 15.0 | 0.00 | 0.00 | 0.00 | 21 | 1020.1 |
| 20260905224606 | 72 | 163 | 4.0 | 15.0 | 0.00 | 0.00 | 0.00 | 23 | 1019.9 |
| 20260905224055 | 72 | 94 | 5.0 | 14.0 | 0.00 | 0.00 | 0.00 | 21 | 1019.9 |
| 20260905223555 | 72 | 112 | 6.0 | 16.0 | 0.00 | 0.00 | 0.00 | 19 | 1019.9 |
| 20260905223105 | 71 | 96 | 6.0 | 16.0 | 0.00 | 0.00 | 0.00 | 23 | 1019.8 |
| 20260905222557 | 71 | 125 | 7.0 | 17.0 | 0.00 | 0.00 | 0.00 | 24 | 1020.0 |
| 20260905222057 | 71 | 125 | 8.0 | 17.0 | 0.00 | 0.00 | 0.00 | 24 | 1020.0 |
| 20260905221604 | 71 | 115 | 5.0 | 16.0 | 0.00 | 0.00 | 0.00 | 23 | 1020.0 |
| 20260905221057 | 71 | 111 | 6.0 | 16.0 | 0.00 | 0.00 | 0.00 | 22 | 1020.1 |
| 20260905220558 | 71 | 9 | 2.0 | 18.0 | 0.00 | 0.00 | 0.00 | 22 | 1020.1 |
| 20260905220105 | 71 | 133 | 5.0 | 18.0 | 0.00 | 0.00 | 0.00 | 24 | 1019.9 |
| 20260905215557 | 70 | 13 | 9.0 | 18.0 | 0.00 | 0.00 | 0.00 | 24 | 1020.1 |
| 20260905215058 | 70 | 31 | 6.0 | 18.0 | 0.00 | 0.00 | 0.00 | 25 | 1020.1 |
| 20260905214608 | 70 | 90 | 3.0 | 19.0 | 0.00 | 0.00 | 0.00 | 24 | 1020.2 |
| 20260905214058 | 70 | 98 | 10.0 | 19.0 | 0.00 | 0.00 | 0.00 | 22 | 1020.4 |
| 20260905213557 | 70 | 166 | 6.0 | 15.0 | 0.00 | 0.00 | 0.00 | 24 | 1020.2 |
| 20260905213108 | 71 | 93 | 5.0 | 21.0 | 0.00 | 0.00 | 0.00 | 24 | 1020.4 |
| 20260905212557 | 70 | 180 | 8.0 | 21.0 | 0.00 | 0.00 | 0.00 | 24 | 1020.4 |
| 20260905212057 | 70 | 60 | 6.0 | 22.0 | 0.00 | 0.00 | 0.00 | 24 | 1020.5 |
| 20260905211602 | 70 | 0 | 5.0 | 22.0 | 0.00 | 0.00 | 0.00 | 25 | 1020.5 |
| 20260905211057 | 69 | 80 | 9.0 | 22.0 | 0.00 | 0.00 | 0.00 | 26 | 1020.5 |
| 20260905210557 | 70 | 142 | 4.0 | 16.0 | 0.00 | 0.00 | 0.00 | 24 | 1020.7 |
| 20260905210126 | 69 | 56 | 7.0 | 21.0 | 0.00 | 0.00 | 0.00 | 26 | 1020.9 |
| 20260905205557 | 69 | 123 | 8.0 | 21.0 | 0.00 | 0.00 | 0.00 | 27 | 1020.9 |
| 20260905205101 | 69 | 110 | 7.0 | 18.0 | 0.00 | 0.00 | 0.00 | 28 | 1020.9 |
| 20260905204606 | 68 | 159 | 6.0 | 15.0 | 0.00 | 0.00 | 0.00 | 28 | 1020.8 |
| 20260905204057 | 68 | 150 | 8.0 | 23.0 | 0.00 | 0.00 | 0.00 | 29 | 1020.9 |
| 20260905203558 | 68 | 182 | 8.0 | 23.0 | 0.00 | 0.00 | 0.00 | 29 | 1021.0 |
| 20260905203101 | 67 | 38 | 10.0 | 23.0 | 0.00 | 0.00 | 0.00 | 28 | 1020.9 |
| 20260905202557 | 67 | 102 | 9.0 | 23.0 | 0.00 | 0.00 | 0.00 | 29 | 1021.0 |
| 20260905202057 | 67 | 122 | 8.0 | 18.0 | 0.00 | 0.00 | 0.00 | 29 | 1021.1 |
| 20260905201607 | 66 | 53 | 10.0 | 18.0 | 0.00 | 0.00 | 0.00 | 30 | 1020.9 |
| 20260905201057 | 67 | 158 | 8.0 | 18.0 | 0.00 | 0.00 | 0.00 | 28 | 1021.1 |
| 20260905200558 | 67 | 357 | 6.0 | 18.0 | 0.00 | 0.00 | 0.00 | 28 | 1021.1 |
| 20260905200117 | 67 | 334 | 7.0 | 18.0 | 0.00 | 0.00 | 0.00 | 29 | 1021.1 |
| 20260905195558 | 66 | 86 | 8.0 | 22.0 | 0.00 | 0.00 | 0.00 | 30 | 1021.1 |
| 20260905195057 | 65 | 1 | 9.0 | 22.0 | 0.00 | 0.00 | 0.00 | 30 | 1021.1 |
| 20260905194616 | 65 | 63 | 9.0 | 20.0 | 0.00 | 0.00 | 0.00 | 30 | 1021.1 |
| 20260905194057 | 66 | 118 | 8.0 | 20.0 | 0.00 | 0.00 | 0.00 | 32 | 1021.0 |
| 20260905193556 | 66 | 160 | 10.0 | 20.0 | 0.00 | 0.00 | 0.00 | 30 | 1021.1 |
| 20260905193103 | 66 | 49 | 7.0 | 15.0 | 0.00 | 0.00 | 0.00 | 30 | 1021.1 |
| 20260905192557 | 65 | 109 | 9.0 | 18.0 | 0.00 | 0.00 | 0.00 | 32 | 1021.1 |
| 20260905192121 | 65 | 117 | 9.0 | 20.0 | 0.00 | 0.00 | 0.00 | 32 | 1021.1 |
| 20260905191609 | 65 | 153 | 7.0 | 20.0 | 0.00 | 0.00 | 0.00 | 32 | 1021.3 |
| 20260905191058 | 65 | 94 | 7.0 | 20.0 | 0.00 | 0.00 | 0.00 | 32 | 1021.1 |
| 20260905190558 | 65 | 120 | 9.0 | 18.0 | 0.00 | 0.00 | 0.00 | 32 | 1021.1 |
| 20260905190112 | 65 | 50 | 6.0 | 14.0 | 0.00 | 0.00 | 0.00 | 31 | 1021.2 |
| 20260905185557 | 65 | 61 | 7.0 | 18.0 | 0.00 | 0.00 | 0.00 | 32 | 1021.3 |
| 20260905185057 | 64 | 77 | 8.0 | 18.0 | 0.00 | 0.00 | 0.00 | 31 | 1021.1 |
| 20260905184625 | 64 | 129 | 8.0 | 17.0 | 0.00 | 0.00 | 0.00 | 32 | 1021.3 |
| 20260905184057 | 64 | 68 | 6.0 | 16.0 | 0.00 | 0.00 | 0.00 | 33 | 1021.3 |
| 20260905183557 | 64 | 154 | 7.0 | 16.0 | 0.00 | 0.00 | 0.00 | 33 | 1021.5 |
| 20260905183108 | 64 | 84 | 6.0 | 17.0 | 0.00 | 0.00 | 0.00 | 35 | 1021.6 |
| 20260905182557 | 63 | 18 | 7.0 | 17.0 | 0.00 | 0.00 | 0.00 | 33 | 1021.5 |
| 20260905182058 | 63 | 94 | 8.0 | 19.0 | 0.00 | 0.00 | 0.00 | 33 | 1021.6 |
| 20260905181607 | 63 | 50 | 7.0 | 19.0 | 0.00 | 0.00 | 0.00 | 32 | 1021.5 |
| 20260905181058 | 63 | 302 | 7.0 | 15.0 | 0.00 | 0.00 | 0.00 | 32 | 1021.5 |
| 20260905180557 | 63 | 75 | 5.0 | 14.0 | 0.00 | 0.00 | 0.00 | 32 | 1021.5 |
| 20260905180105 | 63 | 80 | 5.0 | 14.0 | 0.00 | 0.00 | 0.00 | 33 | 1021.6 |
| 20260905175557 | 63 | 69 | 4.0 | 14.0 | 0.00 | 0.00 | 0.00 | 34 | 1021.5 |
| 20260905175057 | 63 | 70 | 3.0 | 14.0 | 0.00 | 0.00 | 0.00 | 34 | 1021.4 |
| 20260905174610 | 63 | 35 | 5.0 | 14.0 | 0.00 | 0.00 | 0.00 | 32 | 1021.5 |
| 20260905174057 | 63 | 25 | 6.0 | 14.0 | 0.00 | 0.00 | 0.00 | 34 | 1021.5 |
| 20260905173558 | 64 | 63 | 1.0 | 7.0 | 0.00 | 0.00 | 0.00 | 35 | 1021.6 |
| 20260905173116 | 65 | 49 | 0.0 | 5.0 | 0.00 | 0.00 | 0.00 | 39 | 1021.6 |
| 20260905172556 | 63 | 258 | 2.0 | 5.0 | 0.00 | 0.00 | 0.00 | 39 | 1021.6 |
| 20260905172100 | 63 | 126 | 1.0 | 4.0 | 0.00 | 0.00 | 0.00 | 38 | 1021.7 |
| 20260905171625 | 63 | 84 | 1.0 | 4.0 | 0.00 | 0.00 | 0.00 | 39 | 1021.7 |
| 20260905171057 | 62 | 11 | 1.0 | 4.0 | 0.00 | 0.00 | 0.00 | 41 | 1021.6 |
| 20260905170557 | 61 | 27 | 1.0 | 5.0 | 0.00 | 0.00 | 0.00 | 41 | 1021.7 |
| 20260905170109 | 60 | 19 | 2.0 | 6.0 | 0.00 | 0.00 | 0.00 | 42 | 1021.6 |
| 20260905165558 | 60 | 47 | 3.0 | 6.0 | 0.00 | 0.00 | 0.00 | 41 | 1021.7 |
| 20260905165058 | 61 | 321 | 2.0 | 4.0 | 0.00 | 0.00 | 0.00 | 44 | 1021.7 |
| 20260905164606 | 61 | 47 | 0.0 | 3.0 | 0.00 | 0.00 | 0.00 | 43 | 1021.9 |
| 20260905164058 | 61 | 307 | 0.0 | 3.0 | 0.00 | 0.00 | 0.00 | 43 | 1021.7 |
| 20260905163557 | 60 | 0 | 0.0 | 5.0 | 0.00 | 0.00 | 0.00 | 43 | 1021.7 |
| 20260905163114 | 59 | 0 | 0.0 | 5.0 | 0.00 | 0.00 | 0.00 | 49 | 1021.8 |
| 20260905162600 | 59 | 74 | 1.0 | 5.0 | 0.00 | 0.00 | 0.00 | 49 | 1021.8 |
| 20260905162058 | 58 | 0 | 0.0 | 3.0 | 0.00 | 0.00 | 0.00 | 54 | 1021.9 |
| 20260905161604 | 58 | 302 | 0.0 | 3.0 | 0.00 | 0.00 | 0.00 | 55 | 1022.0 |
| 20260905161057 | 57 | 318 | 0.0 | 2.0 | 0.00 | 0.00 | 0.00 | 56 | 1022.0 |
| 20260905160557 | 56 | 0 | 0.0 | 5.0 | 0.00 | 0.00 | 0.00 | 58 | 1021.8 |
| 20260905160105 | 55 | 0 | 2.0 | 5.0 | 0.00 | 0.00 | 0.00 | 63 | 1021.9 |
| 20260905155557 | 55 | 48 | 1.0 | 4.0 | 0.00 | 0.00 | 0.00 | 64 | 1021.8 |
| 20260905155056 | 54 | 0 | 0.0 | 3.0 | 0.00 | 0.00 | 0.00 | 66 | 1022.0 |
| 20260905154618 | 54 | 84 | 0.0 | 3.0 | 0.00 | 0.00 | 0.00 | 67 | 1021.8 |
| 20260905154057 | 54 | 0 | 0.0 | 2.0 | 0.00 | 0.00 | 0.00 | 69 | 1022.0 |
| 20260905153556 | 51 | 0 | 0.0 | 2.0 | 0.00 | 0.00 | 0.00 | 74 | 1021.7 |
| 20260905153114 | 51 | 91 | 1.0 | 2.0 | 0.00 | 0.00 | 0.00 | 74 | 1021.9 |
| 20260905152557 | 49 | 0 | 0.0 | 1.0 | 0.00 | 0.00 | 0.00 | 78 | 1022.0 |
| 20260905152101 | 48 | 99 | 1.0 | 1.0 | 0.00 | 0.00 | 0.00 | 79 | 1022.1 |
| 20260905151613 | 48 | 0 | 0.0 | 1.0 | 0.00 | 0.00 | 0.00 | 79 | 1022.0 |
| 20260905151057 | 48 | 70 | 0.0 | 1.0 | 0.00 | 0.00 | 0.00 | 79 | 1022.0 |
| 20260905150556 | 47 | 0 | 0.0 | 1.0 | 0.00 | 0.00 | 0.00 | 81 | 1021.9 |
| 20260905150105 | 47 | 0 | 0.0 | 1.0 | 0.00 | 0.00 | 0.00 | 83 | 1022.0 |
| 20260905145601 | 46 | 0 | 0.0 | 1.0 | 0.00 | 0.00 | 0.00 | 81 | 1022.0 |
| 20260905145057 | 46 | 0 | 0.0 | 0.0 | 0.00 | 0.00 | 0.00 | 83 | 1022.0 |
| 20260905144603 | 44 | 0 | 0.0 | 0.0 | 0.00 | 0.00 | 0.00 | 87 | 1022.0 |
| 20260905144057 | 42 | 0 | 0.0 | 0.0 | 0.00 | 0.00 | 0.00 | 88 | 1022.0 |
| 20260905143557 | 40 | 0 | 0.0 | 0.0 | 0.00 | 0.00 | 0.00 | 91 | 1021.9 |
| 20260905143105 | 38 | 0 | 0.0 | 1.0 | 0.00 | 0.00 | 0.00 | 89 | 1021.8 |
| 20260905142557 | 38 | 0 | 0.0 | 1.0 | 0.00 | 0.00 | 0.00 | 88 | 1021.9 |
| 20260905142100 | 38 | 0 | 0.0 | 1.0 | 0.00 | 0.00 | 0.00 | 87 | 1021.8 |
| 20260905141603 | 38 | 0 | 0.0 | 1.0 | 0.00 | 0.00 | 0.00 | 88 | 1021.9 |
| 20260905141056 | 38 | 0 | 0.0 | 0.0 | 0.00 | 0.00 | 0.00 | 89 | 1021.8 |
| 20260905140556 | 38 | 0 | 0.0 | 1.0 | 0.00 | 0.00 | 0.00 | 88 | 1021.6 |
| 20260905140105 | 37 | 0 | 0.0 | 1.0 | 0.00 | 0.00 | 0.00 | 86 | 1021.6 |
| 20260905135557 | 37 | 170 | 0.0 | 1.0 | 0.00 | 0.00 | 0.00 | 88 | 1021.7 |
| 20260905135056 | 37 | 0 | 0.0 | 1.0 | 0.00 | 0.00 | 0.00 | 88 | 1021.5 |
| 20260905134602 | 37 | 190 | 0.0 | 3.0 | 0.00 | 0.00 | 0.00 | 87 | 1021.5 |
| 20260905134101 | 37 | 0 | 0.0 | 3.0 | 0.00 | 0.00 | 0.00 | 88 | 1021.5 |
| 20260905133557 | 37 | 217 | 0.0 | 3.0 | 0.00 | 0.00 | 0.00 | 87 | 1021.5 |
| 20260905133105 | 37 | 0 | 0.0 | 0.0 | 0.00 | 0.00 | 0.00 | 87 | 1021.4 |
| 20260905132558 | 37 | 0 | 0.0 | 0.0 | 0.00 | 0.00 | 0.00 | 84 | 1021.4 |
| 20260905132057 | 38 | 0 | 0.0 | 0.0 | 0.00 | 0.00 | 0.00 | 86 | 1021.3 |
| 20260905131610 | 39 | 0 | 0.0 | 2.0 | 0.00 | 0.00 | 0.00 | 87 | 1021.3 |
| 20260905131119 | 38 | 0 | 0.0 | 2.0 | 0.00 | 0.00 | 0.00 | 86 | 1021.1 |
| 20260905130559 | 38 | 0 | 0.0 | 2.0 | 0.00 | 0.00 | 0.00 | 86 | 1021.4 |
| 20260905125558 | 38 | 0 | 0.0 | 1.0 | 0.00 | 0.00 | 0.00 | 84 | 1021.5 |
| 20260905125058 | 38 | 0 | 0.0 | 0.0 | 0.00 | 0.00 | 0.00 | 85 | 1021.4 |
| 20260905124605 | 38 | 0 | 0.0 | 2.0 | 0.00 | 0.00 | 0.00 | 85 | 1021.3 |
| 20260905124058 | 38 | 0 | 1.0 | 2.0 | 0.00 | 0.00 | 0.00 | 83 | 1021.0 |
| 20260905123558 | 39 | 0 | 0.0 | 0.0 | 0.00 | 0.00 | 0.00 | 85 | 1021.1 |
| 20260905123110 | 39 | 0 | 0.0 | 1.0 | 0.00 | 0.00 | 0.00 | 86 | 1020.9 |
| 20260905122558 | 39 | 0 | 0.0 | 1.0 | 0.00 | 0.00 | 0.00 | 83 | 1021.0 |
| 20260905122100 | 39 | 0 | 0.0 | 1.0 | 0.00 | 0.00 | 0.00 | 80 | 1021.0 |
| 20260905121605 | 39 | 243 | 0.0 | 1.0 | 0.00 | 0.00 | 0.00 | 82 | 1020.9 |
| 20260905121058 | 40 | 171 | 0.0 | 1.0 | 0.00 | 0.00 | 0.00 | 81 | 1020.9 |
| 20260905120602 | 40 | 0 | 0.0 | 1.0 | 0.00 | 0.00 | 0.00 | 80 | 1020.9 |
| 20260905120107 | 40 | 0 | 0.0 | 2.0 | 0.00 | 0.00 | 0.00 | 81 | 1021.0 |
| 20260905115558 | 40 | 216 | 0.0 | 2.0 | 0.00 | 0.00 | 0.00 | 81 | 1020.8 |
| 20260905115058 | 41 | 170 | 0.0 | 2.0 | 0.00 | 0.00 | 0.00 | 78 | 1021.0 |
| 20260905114602 | 41 | 0 | 0.0 | 3.0 | 0.00 | 0.00 | 0.00 | 79 | 1020.9 |
| 20260905114102 | 41 | 0 | 0.0 | 3.0 | 0.00 | 0.00 | 0.00 | 82 | 1021.0 |
| 20260905113558 | 41 | 170 | 0.0 | 3.0 | 0.00 | 0.00 | 0.00 | 80 | 1021.0 |
| 20260905113107 | 41 | 0 | 0.0 | 2.0 | 0.00 | 0.00 | 0.00 | 81 | 1020.9 |
| 20260905112558 | 41 | 169 | 0.0 | 3.0 | 0.00 | 0.00 | 0.00 | 82 | 1020.9 |
| 20260905112058 | 40 | 0 | 0.0 | 3.0 | 0.00 | 0.00 | 0.00 | 83 | 1020.9 |
| 20260905111646 | 40 | 158 | 0.0 | 3.0 | 0.00 | 0.00 | 0.00 | 82 | 1021.0 |
| 20260905111057 | 40 | 0 | 1.0 | 3.0 | 0.00 | 0.00 | 0.00 | 81 | 1020.9 |
| 20260905110558 | 40 | 0 | 0.0 | 2.0 | 0.00 | 0.00 | 0.00 | 80 | 1021.0 |
| 20260905105557 | 41 | 0 | 0.0 | 2.0 | 0.00 | 0.00 | 0.00 | 82 | 1021.0 |
| 20260905105059 | 41 | 0 | 0.0 | 3.0 | 0.00 | 0.00 | 0.00 | 82 | 1020.9 |
| 20260905104608 | 41 | 0 | 0.0 | 3.0 | 0.00 | 0.00 | 0.00 | 83 | 1021.1 |
| 20260905104058 | 41 | 0 | 1.0 | 3.0 | 0.00 | 0.00 | 0.00 | 81 | 1020.9 |
| 20260905103559 | 41 | 240 | 0.0 | 3.0 | 0.00 | 0.00 | 0.00 | 82 | 1021.0 |
| 20260905103104 | 41 | 188 | 0.0 | 2.0 | 0.00 | 0.00 | 0.00 | 82 | 1021.0 |
| 20260905102558 | 42 | 155 | 0.0 | 3.0 | 0.00 | 0.00 | 0.00 | 83 | 1021.0 |
| 20260905102058 | 41 | 0 | 0.0 | 3.0 | 0.00 | 0.00 | 0.00 | 80 | 1021.1 |
| 20260905101607 | 42 | 0 | 0.0 | 2.0 | 0.00 | 0.00 | 0.00 | 82 | 1021.1 |
| 20260905101058 | 42 | 0 | 0.0 | 2.0 | 0.00 | 0.00 | 0.00 | 82 | 1021.1 |
| 20260905100558 | 42 | 169 | 0.0 | 2.0 | 0.00 | 0.00 | 0.00 | 82 | 1021.2 |
| 20260905100114 | 41 | 0 | 1.0 | 2.0 | 0.00 | 0.00 | 0.00 | 81 | 1021.2 |
| 20260905095557 | 41 | 210 | 0.0 | 3.0 | 0.00 | 0.00 | 0.00 | 83 | 1021.3 |
| 20260905095058 | 41 | 0 | 1.0 | 3.0 | 0.00 | 0.00 | 0.00 | 80 | 1021.1 |
| 20260905094607 | 41 | 0 | 0.0 | 2.0 | 0.00 | 0.00 | 0.00 | 81 | 1021.3 |
| 20260905094100 | 42 | 0 | 0.0 | 2.0 | 0.00 | 0.00 | 0.00 | 79 | 1021.1 |
| 20260905093558 | 42 | 0 | 0.0 | 3.0 | 0.00 | 0.00 | 0.00 | 82 | 1021.1 |
| 20260905093107 | 42 | 185 | 1.0 | 3.0 | 0.00 | 0.00 | 0.00 | 81 | 1021.1 |
| 20260905092600 | 42 | 208 | 0.0 | 1.0 | 0.00 | 0.00 | 0.00 | 80 | 1021.1 |
| 20260905092102 | 42 | 0 | 0.0 | 1.0 | 0.00 | 0.00 | 0.00 | 83 | 1021.1 |
| 20260905091606 | 42 | 0 | 0.0 | 2.0 | 0.00 | 0.00 | 0.00 | 82 | 1021.3 |
| 20260905091057 | 42 | 0 | 0.0 | 2.0 | 0.00 | 0.00 | 0.00 | 82 | 1021.2 |
| 20260905090603 | 42 | 0 | 0.0 | 2.0 | 0.00 | 0.00 | 0.00 | 80 | 1021.3 |
| 20260905090105 | 42 | 0 | 0.0 | 2.0 | 0.00 | 0.00 | 0.00 | 79 | 1021.2 |
| 20260905085601 | 43 | 233 | 0.0 | 2.0 | 0.00 | 0.00 | 0.00 | 81 | 1021.3 |
| 20260905085057 | 43 | 0 | 1.0 | 2.0 | 0.00 | 0.00 | 0.00 | 81 | 1021.3 |
| 20260905084607 | 42 | 0 | 0.0 | 2.0 | 0.00 | 0.00 | 0.00 | 80 | 1021.2 |
| 20260905084058 | 42 | 0 | 0.0 | 1.0 | 0.00 | 0.00 | 0.00 | 80 | 1021.3 |
| 20260905083602 | 43 | 0 | 0.0 | 0.0 | 0.00 | 0.00 | 0.00 | 79 | 1021.3 |
| 20260905083106 | 43 | 0 | 0.0 | 2.0 | 0.00 | 0.00 | 0.00 | 80 | 1021.3 |
| 20260905082558 | 42 | 0 | 0.0 | 2.0 | 0.00 | 0.00 | 0.00 | 79 | 1021.3 |
| 20260905082058 | 43 | 0 | 0.0 | 2.0 | 0.00 | 0.00 | 0.00 | 79 | 1021.3 |
| 20260905081601 | 43 | 0 | 0.0 | 2.0 | 0.00 | 0.00 | 0.00 | 77 | 1021.3 |
| 20260905081058 | 43 | 181 | 0.0 | 1.0 | 0.00 | 0.00 | 0.00 | 80 | 1021.3 |
| 20260905080601 | 43 | 198 | 0.0 | 0.0 | 0.00 | 0.00 | 0.00 | 76 | 1021.4 |
| 20260905080129 | 44 | 0 | 0.0 | 1.0 | 0.00 | 0.00 | 0.00 | 78 | 1021.4 |
| 20260905075558 | 44 | 0 | 0.0 | 1.0 | 0.00 | 0.00 | 0.00 | 78 | 1021.3 |
| 20260905075057 | 44 | 170 | 0.0 | 1.0 | 0.00 | 0.00 | 0.00 | 77 | 1021.4 |
| 20260905074605 | 44 | 0 | 0.0 | 2.0 | 0.00 | 0.00 | 0.00 | 78 | 1021.4 |
| 20260905074059 | 44 | 0 | 0.0 | 2.0 | 0.00 | 0.00 | 0.00 | 77 | 1021.3 |